Time;durP1;ratioP1;P1;durP2;ratioP2;P2;SDS_P1;SDS_P2;PMS_P1;PMS_P2;Temp;Humidity;BMP_temperature;BMP_pressure;BME280_temperature;BME280_humidity;BME280_pressure;Samples;Min_cycle;Max_cycle;Signal;HPM_P1;HPM_P2
2022/03/23 00:01:29;;;;;;;5.40;5.18;;;;;;;;;;6181488;23;20031;-48
2022/03/23 00:03:54;;;;;;;0.20;0.15;;;;;;;;;;6181498;23;20040;-48
2022/03/23 00:06:20;;;;;;;3.75;3.55;;;;;;;;;;6180657;23;20374;-50
2022/03/23 00:08:45;;;;;;;0.10;0.10;;;;;;;;;;6181652;23;19993;-50
2022/03/23 00:11:11;;;;;;;0.00;0.00;;;;;;;;;;6180531;23;20071;-51
2022/03/23 00:13:36;;;;;;;0.00;0.00;;;;;;;;;;6180548;23;19997;-49
2022/03/23 00:16:01;;;;;;;0.00;0.00;;;;;;;;;;6180658;23;20066;-50
2022/03/23 00:18:27;;;;;;;0.03;0.03;;;;;;;;;;6181181;23;20054;-50
2022/03/23 00:20:52;;;;;;;0.00;0.00;;;;;;;;;;6181399;23;20411;-52
2022/03/23 00:23:18;;;;;;;0.10;0.10;;;;;;;;;;6181191;23;20001;-50
2022/03/23 00:25:43;;;;;;;0.00;0.00;;;;;;;;;;6181071;23;20008;-54
2022/03/23 00:28:08;;;;;;;0.00;0.00;;;;;;;;;;6181045;23;20005;-51
2022/03/23 00:30:34;;;;;;;0.10;0.10;;;;;;;;;;6181205;23;20399;-51
2022/03/23 00:33:02;;;;;;;0.00;0.00;;;;;;;;;;6179926;23;20280;-51
2022/03/23 00:35:30;;;;;;;0.00;0.00;;;;;;;;;;6181383;23;19997;-54
2022/03/23 00:37:56;;;;;;;0.00;0.00;;;;;;;;;;6181376;23;19997;-51
2022/03/23 00:40:21;;;;;;;0.00;0.00;;;;;;;;;;6180304;23;20008;-51
2022/03/23 00:42:46;;;;;;;0.00;0.00;;;;;;;;;;6181102;23;20019;-49
2022/03/23 00:45:12;;;;;;;1.00;1.00;;;;;;;;;;6180701;23;20403;-46
2022/03/23 00:47:37;;;;;;;0.00;0.00;;;;;;;;;;6181119;23;19992;-47
2022/03/23 00:50:04;;;;;;;0.00;0.00;;;;;;;;;;6179861;23;20442;-54
2022/03/23 00:52:29;;;;;;;0.52;0.52;;;;;;;;;;6181058;23;20001;-50
2022/03/23 00:54:55;;;;;;;3.72;3.53;;;;;;;;;;6181008;23;20057;-46
2022/03/23 00:57:20;;;;;;;0.70;0.70;;;;;;;;;;6180542;23;20001;-49
2022/03/23 00:59:45;;;;;;;0.57;0.57;;;;;;;;;;6180463;23;19993;-50
2022/03/23 01:02:10;;;;;;;0.00;0.00;;;;;;;;;;6180428;23;20016;-52
2022/03/23 01:04:36;;;;;;;0.00;0.00;;;;;;;;;;6181263;23;20001;-49
2022/03/23 01:07:01;;;;;;;0.90;0.90;;;;;;;;;;6180538;23;20004;-53
2022/03/23 01:09:26;;;;;;;0.00;0.00;;;;;;;;;;6180833;23;20427;-46
2022/03/23 01:11:52;;;;;;;0.08;0.08;;;;;;;;;;6180741;23;20005;-53
2022/03/23 01:14:18;;;;;;;0.00;0.00;;;;;;;;;;6180398;23;20076;-45
2022/03/23 01:16:44;;;;;;;0.00;0.00;;;;;;;;;;6155395;23;20020;-47
2022/03/23 01:19:09;;;;;;;0.00;0.00;;;;;;;;;;6180074;23;20005;-51
2022/03/23 01:21:36;;;;;;;0.00;0.00;;;;;;;;;;6181442;23;20080;-50
2022/03/23 01:24:01;;;;;;;1.65;1.55;;;;;;;;;;6180904;23;20048;-47
2022/03/23 01:26:26;;;;;;;3.30;2.92;;;;;;;;;;6181495;23;20008;-50
2022/03/23 01:28:52;;;;;;;0.00;0.00;;;;;;;;;;6181586;23;19997;-46
2022/03/23 01:31:17;;;;;;;0.28;0.28;;;;;;;;;;6181006;23;20016;-48
2022/03/23 01:33:42;;;;;;;0.22;0.22;;;;;;;;;;6180997;23;20001;-48
2022/03/23 01:36:07;;;;;;;0.15;0.15;;;;;;;;;;6180575;23;20016;-47
2022/03/23 01:38:32;;;;;;;0.10;0.10;;;;;;;;;;6180666;23;20015;-49
2022/03/23 01:40:58;;;;;;;0.00;0.00;;;;;;;;;;6181046;23;20441;-50
2022/03/23 01:43:23;;;;;;;0.00;0.00;;;;;;;;;;6180785;23;20004;-53
2022/03/23 01:45:48;;;;;;;0.68;0.68;;;;;;;;;;6181171;23;20097;-51
2022/03/23 01:48:14;;;;;;;0.00;0.00;;;;;;;;;;6180831;23;20366;-49
2022/03/23 01:50:40;;;;;;;4.82;4.53;;;;;;;;;;6181164;23;20048;-52
2022/03/23 01:53:06;;;;;;;0.80;0.43;;;;;;;;;;6180903;23;20001;-49
2022/03/23 01:55:31;;;;;;;0.00;0.00;;;;;;;;;;6181539;23;20005;-50
2022/03/23 01:57:56;;;;;;;0.30;0.30;;;;;;;;;;6180982;23;20051;-48
2022/03/23 02:00:21;;;;;;;0.00;0.00;;;;;;;;;;6179583;23;20080;-50
2022/03/23 02:02:47;;;;;;;0.00;0.00;;;;;;;;;;6179648;23;20450;-48
2022/03/23 02:05:12;;;;;;;0.00;0.00;;;;;;;;;;6178925;23;20407;-51
2022/03/23 02:07:39;;;;;;;0.00;0.00;;;;;;;;;;6179904;23;20008;-49
2022/03/23 02:10:04;;;;;;;0.95;0.85;;;;;;;;;;6180136;23;20009;-49
2022/03/23 02:12:30;;;;;;;0.30;0.20;;;;;;;;;;6180769;23;20331;-50
2022/03/23 02:14:57;;;;;;;0.40;0.40;;;;;;;;;;6180878;23;20007;-50
2022/03/23 02:17:22;;;;;;;0.00;0.00;;;;;;;;;;6180430;23;20001;-48
2022/03/23 02:19:47;;;;;;;0.00;0.00;;;;;;;;;;6180635;23;20055;-48
2022/03/23 02:22:13;;;;;;;0.00;0.00;;;;;;;;;;6180828;23;20032;-49
2022/03/23 02:24:38;;;;;;;0.00;0.00;;;;;;;;;;6180936;23;19997;-47
2022/03/23 02:27:03;;;;;;;0.52;0.52;;;;;;;;;;6180199;23;20004;-51
2022/03/23 02:29:31;;;;;;;0.52;0.52;;;;;;;;;;6180511;23;20027;-51
2022/03/23 02:31:57;;;;;;;2.00;2.00;;;;;;;;;;6178293;23;20029;-48
2022/03/23 02:34:25;;;;;;;0.00;0.00;;;;;;;;;;6178661;23;19993;-49
2022/03/23 02:36:51;;;;;;;0.00;0.00;;;;;;;;;;6180279;23;20426;-49
2022/03/23 02:39:16;;;;;;;0.00;0.00;;;;;;;;;;6181085;23;20076;-51
2022/03/23 02:41:41;;;;;;;0.98;0.98;;;;;;;;;;6182100;23;20358;-47
2022/03/23 02:44:07;;;;;;;0.00;0.00;;;;;;;;;;6182198;23;20449;-52
2022/03/23 02:46:35;;;;;;;0.00;0.00;;;;;;;;;;6182669;23;20068;-48
2022/03/23 02:49:02;;;;;;;0.00;0.00;;;;;;;;;;6182370;23;20004;-53
2022/03/23 02:51:28;;;;;;;0.63;0.63;;;;;;;;;;6182447;23;20004;-49
2022/03/23 03:02:25;;;;;;;3.70;3.60;;;;;;;;;;6181965;23;20492;-47
2022/03/23 03:04:50;;;;;;;0.00;0.00;;;;;;;;;;6182232;23;20080;-53
2022/03/23 03:07:15;;;;;;;0.00;0.00;;;;;;;;;;6181528;23;20036;-54
2022/03/23 03:09:41;;;;;;;0.47;0.47;;;;;;;;;;6182597;23;20004;-53
2022/03/23 03:12:07;;;;;;;0.00;0.00;;;;;;;;;;6181432;23;20343;-52
2022/03/23 03:14:32;;;;;;;0.05;0.05;;;;;;;;;;6182618;23;20012;-54
2022/03/23 03:16:57;;;;;;;0.30;0.30;;;;;;;;;;6182021;23;20008;-53
2022/03/23 03:19:23;;;;;;;0.00;0.00;;;;;;;;;;6181193;23;20020;-52
2022/03/23 03:21:48;;;;;;;0.00;0.00;;;;;;;;;;6182239;23;20075;-51
2022/03/23 03:24:13;;;;;;;0.00;0.00;;;;;;;;;;6182051;23;20008;-48
2022/03/23 03:26:38;;;;;;;0.00;0.00;;;;;;;;;;6181683;23;19997;-52
2022/03/23 03:29:06;;;;;;;0.03;0.03;;;;;;;;;;6181834;23;20015;-51
2022/03/23 03:34:34;;;;;;;1.02;0.47;;;;;;;;;;6179321;23;20071;-51
2022/03/23 03:36:59;;;;;;;0.05;0.05;;;;;;;;;;6181006;23;20001;-54
2022/03/23 03:39:25;;;;;;;0.15;0.15;;;;;;;;;;6180897;23;20001;-50
2022/03/23 03:41:50;;;;;;;0.08;0.08;;;;;;;;;;6180430;23;20407;-50
2022/03/23 03:44:15;;;;;;;5.28;2.05;;;;;;;;;;6180039;23;20001;-49
2022/03/23 03:46:40;;;;;;;2.28;2.17;;;;;;;;;;6181727;23;19993;-50
2022/03/23 03:49:06;;;;;;;0.10;0.10;;;;;;;;;;6181141;23;20043;-49
2022/03/23 03:51:31;;;;;;;0.40;0.40;;;;;;;;;;6181704;23;19997;-49
2022/03/23 03:53:56;;;;;;;0.00;0.00;;;;;;;;;;6181767;23;20454;-52
2022/03/23 03:56:21;;;;;;;0.00;0.00;;;;;;;;;;6181274;23;20001;-48
2022/03/23 03:58:48;;;;;;;0.30;0.30;;;;;;;;;;6181651;23;20076;-51
2022/03/23 04:01:14;;;;;;;0.00;0.00;;;;;;;;;;6181219;23;20115;-49
2022/03/23 04:03:39;;;;;;;0.88;0.88;;;;;;;;;;6180905;23;20012;-50
2022/03/23 04:06:06;;;;;;;0.03;0.03;;;;;;;;;;6154677;23;20001;-51
2022/03/23 04:08:31;;;;;;;0.00;0.00;;;;;;;;;;6181362;23;20529;-48
2022/03/23 04:10:56;;;;;;;0.00;0.00;;;;;;;;;;6181448;23;20036;-49
2022/03/23 04:13:22;;;;;;;3.53;3.40;;;;;;;;;;6181279;23;20338;-54
2022/03/23 04:15:48;;;;;;;0.00;0.00;;;;;;;;;;6180947;23;20005;-50
2022/03/23 04:18:13;;;;;;;0.00;0.00;;;;;;;;;;6180450;23;20051;-50
2022/03/23 04:20:38;;;;;;;0.00;0.00;;;;;;;;;;6180836;23;20033;-52
2022/03/23 04:23:03;;;;;;;0.00;0.00;;;;;;;;;;6181307;23;20035;-50
2022/03/23 04:25:28;;;;;;;0.00;0.00;;;;;;;;;;6180772;23;19997;-51
2022/03/23 04:27:55;;;;;;;0.00;0.00;;;;;;;;;;6180873;23;19993;-48
2022/03/23 04:30:21;;;;;;;0.00;0.00;;;;;;;;;;6180454;23;20005;-50
2022/03/23 04:32:47;;;;;;;0.00;0.00;;;;;;;;;;6180647;23;20438;-48
2022/03/23 04:35:12;;;;;;;0.40;0.40;;;;;;;;;;6180651;23;20021;-51
2022/03/23 04:37:38;;;;;;;0.17;0.17;;;;;;;;;;6181311;23;20008;-52
2022/03/23 04:40:04;;;;;;;0.00;0.00;;;;;;;;;;6180466;23;20005;-52
2022/03/23 04:42:29;;;;;;;0.00;0.00;;;;;;;;;;6180066;23;19997;-48
2022/03/23 04:44:54;;;;;;;0.00;0.00;;;;;;;;;;6181289;23;20435;-49
2022/03/23 04:47:20;;;;;;;0.00;0.00;;;;;;;;;;6180825;23;20481;-50
2022/03/23 04:49:45;;;;;;;0.00;0.00;;;;;;;;;;6180683;23;20474;-47
2022/03/23 04:52:13;;;;;;;0.00;0.00;;;;;;;;;;6180314;23;20015;-47
2022/03/23 04:54:38;;;;;;;0.00;0.00;;;;;;;;;;6181059;23;20015;-50
2022/03/23 04:57:03;;;;;;;0.00;0.00;;;;;;;;;;6180918;23;20004;-50
2022/03/23 04:59:29;;;;;;;0.38;0.38;;;;;;;;;;6180719;23;20059;-52
2022/03/23 05:01:54;;;;;;;0.20;0.20;;;;;;;;;;6153569;23;20009;-53
2022/03/23 05:04:19;;;;;;;0.00;0.00;;;;;;;;;;6178725;23;20021;-48
2022/03/23 05:06:45;;;;;;;0.00;0.00;;;;;;;;;;6180760;23;20097;-49
2022/03/23 05:09:11;;;;;;;0.00;0.00;;;;;;;;;;6180557;23;20438;-51
2022/03/23 05:11:36;;;;;;;0.00;0.00;;;;;;;;;;6181251;23;20470;-50
2022/03/23 05:14:01;;;;;;;0.00;0.00;;;;;;;;;;6180853;23;20000;-51
2022/03/23 05:16:26;;;;;;;0.05;0.05;;;;;;;;;;6179507;23;19997;-52
2022/03/23 05:18:52;;;;;;;0.00;0.00;;;;;;;;;;6180509;23;19993;-50
2022/03/23 05:21:17;;;;;;;0.00;0.00;;;;;;;;;;6179945;23;19997;-51
2022/03/23 05:23:43;;;;;;;0.00;0.00;;;;;;;;;;6180783;23;20255;-50
2022/03/23 05:26:08;;;;;;;0.00;0.00;;;;;;;;;;6154321;23;20303;-50
2022/03/23 05:28:33;;;;;;;0.10;0.10;;;;;;;;;;6180781;23;19997;-53
2022/03/23 05:30:58;;;;;;;0.10;0.10;;;;;;;;;;6180587;23;20001;-53
2022/03/23 05:33:24;;;;;;;0.00;0.00;;;;;;;;;;6180219;23;20087;-49
2022/03/23 05:35:49;;;;;;;0.85;0.85;;;;;;;;;;6180387;23;20104;-48
2022/03/23 05:38:14;;;;;;;4.35;3.92;;;;;;;;;;6180053;23;19997;-48
2022/03/23 05:40:40;;;;;;;0.00;0.00;;;;;;;;;;6180868;23;20005;-51
2022/03/23 05:43:05;;;;;;;0.55;0.47;;;;;;;;;;6180604;23;20392;-48
2022/03/23 05:45:30;;;;;;;0.10;0.10;;;;;;;;;;6180476;23;20096;-47
2022/03/23 05:47:56;;;;;;;0.00;0.00;;;;;;;;;;6181144;23;20001;-53
2022/03/23 05:50:22;;;;;;;2.38;2.35;;;;;;;;;;6180477;23;20405;-53
2022/03/23 05:52:47;;;;;;;0.00;0.00;;;;;;;;;;6180623;23;20319;-50
2022/03/23 05:55:12;;;;;;;0.52;0.52;;;;;;;;;;6180380;23;20637;-50
2022/03/23 05:57:38;;;;;;;0.00;0.00;;;;;;;;;;6179586;23;20439;-49
2022/03/23 06:00:04;;;;;;;0.00;0.00;;;;;;;;;;6179578;23;20430;-48
2022/03/23 06:02:30;;;;;;;0.15;0.15;;;;;;;;;;6179226;23;20056;-50
2022/03/23 06:04:55;;;;;;;0.00;0.00;;;;;;;;;;6180883;23;19997;-53
2022/03/23 06:07:20;;;;;;;0.00;0.00;;;;;;;;;;6179759;23;20319;-51
2022/03/23 06:09:45;;;;;;;2.50;1.85;;;;;;;;;;6180596;23;20025;-52
2022/03/23 06:12:12;;;;;;;0.00;0.00;;;;;;;;;;6180795;23;20072;-49
2022/03/23 06:14:38;;;;;;;0.38;0.38;;;;;;;;;;6182905;23;20427;-49
2022/03/23 06:17:03;;;;;;;0.00;0.00;;;;;;;;;;6182494;23;20172;-50
2022/03/23 06:19:29;;;;;;;0.00;0.00;;;;;;;;;;6181402;23;20109;-50
2022/03/23 06:21:54;;;;;;;0.93;0.93;;;;;;;;;;6181734;23;20004;-53
2022/03/23 06:24:19;;;;;;;0.00;0.00;;;;;;;;;;6181885;23;20008;-52
2022/03/23 06:26:44;;;;;;;0.10;0.10;;;;;;;;;;6182213;23;20001;-49
2022/03/23 06:29:10;;;;;;;0.00;0.00;;;;;;;;;;6182178;23;20028;-51
2022/03/23 06:31:35;;;;;;;0.10;0.10;;;;;;;;;;6182310;23;20060;-52
2022/03/23 06:34:03;;;;;;;0.00;0.00;;;;;;;;;;6182111;23;20009;-51
2022/03/23 06:36:28;;;;;;;0.00;0.00;;;;;;;;;;6181526;23;19997;-54
2022/03/23 06:38:53;;;;;;;0.00;0.00;;;;;;;;;;6182395;23;20007;-50
2022/03/23 06:41:19;;;;;;;0.08;0.08;;;;;;;;;;6181971;23;20008;-54
2022/03/23 06:43:44;;;;;;;0.00;0.00;;;;;;;;;;6181956;23;20303;-51
2022/03/23 06:46:09;;;;;;;0.00;0.00;;;;;;;;;;6182416;23;19989;-51
2022/03/23 06:48:35;;;;;;;0.43;0.43;;;;;;;;;;6181376;23;20019;-53
2022/03/23 06:51:00;;;;;;;0.30;0.30;;;;;;;;;;6182037;23;20044;-54
2022/03/23 06:53:25;;;;;;;1.45;1.20;;;;;;;;;;6181694;23;20417;-49
2022/03/23 06:55:51;;;;;;;0.00;0.00;;;;;;;;;;6181819;23;20047;-48
2022/03/23 06:58:16;;;;;;;2.28;0.90;;;;;;;;;;6181972;23;20008;-51
2022/03/23 07:00:41;;;;;;;0.00;0.00;;;;;;;;;;6180231;23;20011;-49
2022/03/23 07:03:08;;;;;;;1.58;1.48;;;;;;;;;;6181276;23;20008;-50
2022/03/23 07:05:35;;;;;;;0.88;0.85;;;;;;;;;;6180624;23;20011;-55
2022/03/23 07:10:44;;;;;;;3.63;1.35;;;;;;;;;;6181307;23;20028;-52
2022/03/23 07:13:09;;;;;;;0.03;0.03;;;;;;;;;;6182051;23;19997;-51
2022/03/23 07:15:34;;;;;;;0.45;0.45;;;;;;;;;;6180714;23;20334;-54
2022/03/23 07:17:59;;;;;;;0.77;0.68;;;;;;;;;;6181954;23;20009;-55
2022/03/23 07:20:25;;;;;;;0.00;0.00;;;;;;;;;;6180927;23;20318;-52
2022/03/23 07:22:50;;;;;;;0.00;0.00;;;;;;;;;;6181094;23;20419;-53
2022/03/23 07:25:15;;;;;;;0.10;0.10;;;;;;;;;;6179620;23;20495;-53
2022/03/23 07:27:41;;;;;;;0.00;0.00;;;;;;;;;;6181522;23;19996;-55
2022/03/23 07:30:07;;;;;;;0.00;0.00;;;;;;;;;;6181981;23;20016;-54
2022/03/23 07:32:32;;;;;;;0.00;0.00;;;;;;;;;;6178128;23;20028;-50
2022/03/23 07:34:57;;;;;;;1.38;1.38;;;;;;;;;;6181089;23;20020;-49
2022/03/23 07:37:23;;;;;;;0.80;0.80;;;;;;;;;;6180332;23;20086;-49
2022/03/23 07:39:48;;;;;;;0.30;0.30;;;;;;;;;;6179605;23;20075;-55
2022/03/23 07:42:13;;;;;;;0.63;0.63;;;;;;;;;;6179619;23;20001;-55
2022/03/23 07:44:38;;;;;;;0.00;0.00;;;;;;;;;;6180471;23;20330;-53
2022/03/23 07:47:10;;;;;;;0.32;0.30;;;;;;;;;;6180649;23;19997;-54
2022/03/23 07:49:36;;;;;;;1.23;1.23;;;;;;;;;;6180291;23;20005;-52
2022/03/23 07:52:02;;;;;;;0.00;0.00;;;;;;;;;;6180585;23;20052;-54
2022/03/23 07:54:27;;;;;;;0.00;0.00;;;;;;;;;;6180228;23;20004;-52
2022/03/23 07:56:52;;;;;;;0.00;0.00;;;;;;;;;;6180413;23;20435;-53
2022/03/23 07:59:18;;;;;;;1.30;0.65;;;;;;;;;;6180053;23;20005;-52
2022/03/23 08:01:43;;;;;;;0.17;0.17;;;;;;;;;;6179545;23;20005;-53
2022/03/23 08:04:08;;;;;;;0.00;0.00;;;;;;;;;;6180208;23;19997;-55
2022/03/23 08:06:35;;;;;;;0.00;0.00;;;;;;;;;;6153537;23;20079;-53
2022/03/23 08:09:02;;;;;;;0.00;0.00;;;;;;;;;;6180888;23;20159;-56
2022/03/23 08:11:27;;;;;;;3.45;2.95;;;;;;;;;;6153084;23;20311;-55
2022/03/23 08:13:52;;;;;;;0.00;0.00;;;;;;;;;;6180501;23;20088;-55
2022/03/23 08:16:17;;;;;;;0.00;0.00;;;;;;;;;;6180288;23;20423;-57
2022/03/23 08:18:43;;;;;;;3.45;3.35;;;;;;;;;;6180300;23;19997;-54
2022/03/23 08:21:08;;;;;;;0.22;0.22;;;;;;;;;;6180293;23;19997;-56
2022/03/23 08:23:34;;;;;;;0.00;0.00;;;;;;;;;;6179899;23;19997;-53
2022/03/23 08:25:59;;;;;;;0.82;0.77;;;;;;;;;;6180806;23;20269;-55
2022/03/23 08:28:24;;;;;;;0.20;0.20;;;;;;;;;;6180079;23;19997;-54
2022/03/23 08:30:49;;;;;;;0.00;0.00;;;;;;;;;;6180562;23;20005;-53
2022/03/23 08:33:15;;;;;;;0.85;0.30;;;;;;;;;;6180634;23;20022;-52
2022/03/23 08:35:40;;;;;;;0.00;0.00;;;;;;;;;;6179354;23;20087;-55
2022/03/23 08:38:06;;;;;;;0.85;0.32;;;;;;;;;;6180542;23;20080;-51
2022/03/23 08:40:32;;;;;;;0.10;0.10;;;;;;;;;;6179722;23;20001;-54
2022/03/23 08:42:58;;;;;;;0.00;0.00;;;;;;;;;;6180413;23;20001;-51
2022/03/23 08:45:23;;;;;;;0.30;0.30;;;;;;;;;;6180397;23;20423;-53
2022/03/23 08:47:49;;;;;;;2.17;1.98;;;;;;;;;;6180629;23;19997;-53
2022/03/23 08:50:15;;;;;;;3.13;2.85;;;;;;;;;;6180569;23;20084;-50
2022/03/23 08:52:41;;;;;;;0.00;0.00;;;;;;;;;;6179385;23;20011;-54
2022/03/23 08:55:07;;;;;;;0.00;0.00;;;;;;;;;;6180855;23;20004;-52
2022/03/23 08:57:33;;;;;;;0.00;0.00;;;;;;;;;;6180066;23;20005;-53
2022/03/23 08:59:58;;;;;;;0.43;0.43;;;;;;;;;;6180117;23;20067;-55
2022/03/23 09:02:23;;;;;;;0.00;0.00;;;;;;;;;;6179823;23;20005;-54
2022/03/23 09:04:49;;;;;;;0.00;0.00;;;;;;;;;;6180258;23;20051;-55
2022/03/23 09:07:14;;;;;;;0.00;0.00;;;;;;;;;;6179878;23;19997;-54
2022/03/23 09:09:39;;;;;;;0.00;0.00;;;;;;;;;;6179433;23;20001;-55
2022/03/23 09:12:05;;;;;;;0.35;0.35;;;;;;;;;;6180599;23;20001;-52
2022/03/23 09:14:30;;;;;;;0.00;0.00;;;;;;;;;;6179826;23;20084;-55
2022/03/23 09:16:55;;;;;;;0.38;0.38;;;;;;;;;;6180441;23;20001;-52
2022/03/23 09:19:21;;;;;;;0.00;0.00;;;;;;;;;;6179273;23;20001;-55
2022/03/23 09:21:46;;;;;;;0.00;0.00;;;;;;;;;;6179508;23;19997;-53
2022/03/23 09:24:12;;;;;;;0.00;0.00;;;;;;;;;;6180637;23;20036;-55
2022/03/23 09:26:38;;;;;;;0.30;0.30;;;;;;;;;;6179799;23;19993;-57
2022/03/23 09:29:04;;;;;;;0.00;0.00;;;;;;;;;;6180182;23;20011;-55
2022/03/23 09:31:30;;;;;;;0.20;0.20;;;;;;;;;;6179439;23;20075;-56
2022/03/23 09:33:55;;;;;;;0.00;0.00;;;;;;;;;;6179562;23;20439;-53
2022/03/23 09:39:04;;;;;;;0.38;0.38;;;;;;;;;;6180019;23;20390;-53
2022/03/23 09:41:31;;;;;;;9.88;9.23;;;;;;;;;;6179633;23;19997;-53
2022/03/23 09:43:58;;;;;;;0.88;0.88;;;;;;;;;;6180126;23;20003;-52
2022/03/23 09:46:23;;;;;;;0.00;0.00;;;;;;;;;;6179703;23;19994;-53
2022/03/23 09:48:49;;;;;;;0.00;0.00;;;;;;;;;;6179555;23;20104;-55
2022/03/23 09:51:14;;;;;;;0.10;0.10;;;;;;;;;;6179632;23;20001;-53
2022/03/23 09:53:40;;;;;;;0.10;0.10;;;;;;;;;;6179304;23;20072;-53
2022/03/23 09:56:05;;;;;;;0.00;0.00;;;;;;;;;;6178960;23;20004;-52
2022/03/23 09:58:31;;;;;;;0.17;0.17;;;;;;;;;;6179020;23;20001;-54
2022/03/23 10:00:59;;;;;;;0.00;0.00;;;;;;;;;;6179910;23;19997;-52
2022/03/23 10:04:02;;;;;;;0.00;0.00;;;;;;;;;;6179521;23;20004;-54
2022/03/23 10:06:51;;;;;;;2.10;2.00;;;;;;;;;;6178976;23;20004;-52
2022/03/23 10:09:25;;;;;;;0.43;0.43;;;;;;;;;;6180494;23;19990;-53
2022/03/23 10:11:53;;;;;;;0.00;0.00;;;;;;;;;;6180372;23;20024;-55
2022/03/23 10:14:55;;;;;;;0.00;0.00;;;;;;;;;;6179975;23;20289;-53
2022/03/23 10:17:39;;;;;;;0.57;0.57;;;;;;;;;;6179216;23;20005;-53
2022/03/23 10:20:04;;;;;;;8.05;2.60;;;;;;;;;;6180201;23;20009;-51
2022/03/23 10:22:30;;;;;;;0.00;0.00;;;;;;;;;;6179296;23;20083;-55
2022/03/23 10:24:58;;;;;;;1.73;1.65;;;;;;;;;;6180179;23;19997;-51
2022/03/23 10:27:31;;;;;;;0.10;0.10;;;;;;;;;;6179782;23;20072;-53
2022/03/23 10:29:56;;;;;;;0.00;0.00;;;;;;;;;;6180139;23;20024;-54
2022/03/23 10:32:21;;;;;;;0.00;0.00;;;;;;;;;;6179895;23;20016;-54
2022/03/23 10:34:48;;;;;;;0.08;0.08;;;;;;;;;;6179335;23;20394;-54
2022/03/23 10:37:14;;;;;;;0.00;0.00;;;;;;;;;;6153028;23;20105;-56
2022/03/23 10:39:40;;;;;;;1.38;1.27;;;;;;;;;;6179195;23;20005;-53
2022/03/23 10:42:07;;;;;;;0.00;0.00;;;;;;;;;;6153688;23;19997;-54
2022/03/23 10:44:32;;;;;;;0.00;0.00;;;;;;;;;;6179998;23;20000;-50
2022/03/23 10:46:58;;;;;;;1.30;1.00;;;;;;;;;;6179709;23;20430;-52
2022/03/23 10:49:50;;;;;;;0.00;0.00;;;;;;;;;;6179613;23;20402;-52
2022/03/23 10:52:16;;;;;;;1.10;1.10;;;;;;;;;;6172346;23;19997;-50
2022/03/23 10:54:54;;;;;;;2.50;2.40;;;;;;;;;;6179448;23;19993;-59
2022/03/23 10:57:20;;;;;;;3.55;3.45;;;;;;;;;;6180750;23;20019;-59
2022/03/23 10:59:46;;;;;;;3.53;3.42;;;;;;;;;;6180966;23;19997;-60
2022/03/23 11:02:11;;;;;;;0.10;0.10;;;;;;;;;;6182158;23;20012;-58
2022/03/23 11:04:42;;;;;;;0.00;0.00;;;;;;;;;;6182628;23;20020;-58
2022/03/23 11:07:21;;;;;;;0.00;0.00;;;;;;;;;;6182631;23;20026;-60
2022/03/23 11:18:09;;;;;;;1.45;1.00;;;;;;;;;;6181817;23;20012;-57
2022/03/23 11:20:38;;;;;;;0.20;0.20;;;;;;;;;;6181103;23;20001;-59
2022/03/23 11:23:15;;;;;;;2.10;2.00;;;;;;;;;;6181904;23;20060;-60
2022/03/23 11:25:40;;;;;;;0.08;0.08;;;;;;;;;;6181785;23;20343;-61
2022/03/23 11:28:05;;;;;;;1.52;1.48;;;;;;;;;;6182370;23;20009;-59
2022/03/23 11:30:31;;;;;;;0.00;0.00;;;;;;;;;;6181860;23;20025;-59
2022/03/23 11:32:56;;;;;;;0.00;0.00;;;;;;;;;;6182461;23;20017;-59
2022/03/23 11:35:22;;;;;;;0.00;0.00;;;;;;;;;;6181557;23;20098;-59
2022/03/23 11:37:48;;;;;;;0.65;0.65;;;;;;;;;;6181901;23;20001;-58
2022/03/23 11:40:13;;;;;;;0.00;0.00;;;;;;;;;;6182893;23;20054;-58
2022/03/23 11:42:38;;;;;;;0.00;0.00;;;;;;;;;;6182359;23;20323;-58
2022/03/23 11:45:04;;;;;;;0.00;0.00;;;;;;;;;;6183376;23;20025;-58
2022/03/23 11:47:39;;;;;;;1.65;1.55;;;;;;;;;;6181693;23;20060;-59
2022/03/23 11:50:25;;;;;;;0.00;0.00;;;;;;;;;;6182010;23;20076;-59
2022/03/23 11:52:59;;;;;;;1.35;1.35;;;;;;;;;;6182551;23;20174;-59
2022/03/23 11:55:42;;;;;;;0.03;0.03;;;;;;;;;;6182568;23;20001;-58
2022/03/23 11:58:31;;;;;;;0.00;0.00;;;;;;;;;;6183519;23;20005;-57
2022/03/23 12:01:06;;;;;;;2.63;0.80;;;;;;;;;;6183171;23;20008;-58
2022/03/23 12:03:41;;;;;;;0.65;0.65;;;;;;;;;;6182695;23;20411;-58
2022/03/23 12:06:13;;;;;;;2.03;2.00;;;;;;;;;;6157151;23;20020;-57
2022/03/23 12:08:49;;;;;;;0.17;0.17;;;;;;;;;;6183297;23;19997;-58
2022/03/23 12:11:38;;;;;;;0.00;0.00;;;;;;;;;;6183610;23;20035;-59
2022/03/23 12:14:04;;;;;;;3.22;3.08;;;;;;;;;;6163906;23;20010;-56
2022/03/23 12:16:59;;;;;;;0.55;0.55;;;;;;;;;;6183507;23;20000;-57
2022/03/23 12:19:24;;;;;;;0.13;0.13;;;;;;;;;;6149733;23;20037;-58
2022/03/23 12:21:53;;;;;;;0.27;0.23;;;;;;;;;;6181359;23;19997;-59
2022/03/23 12:24:37;;;;;;;3.72;3.42;;;;;;;;;;6181389;23;20244;-60
2022/03/23 12:27:05;;;;;;;0.00;0.00;;;;;;;;;;6179096;23;20080;-58
2022/03/23 12:29:34;;;;;;;4.25;4.13;;;;;;;;;;6180236;23;20001;-59
2022/03/23 12:32:08;;;;;;;0.00;0.00;;;;;;;;;;6181545;23;20441;-59
2022/03/23 12:34:34;;;;;;;0.00;0.00;;;;;;;;;;6180843;23;20064;-58
2022/03/23 12:37:18;;;;;;;0.25;0.25;;;;;;;;;;6182145;23;20326;-59
2022/03/23 12:39:45;;;;;;;1.40;1.33;;;;;;;;;;6182496;23;20001;-58
2022/03/23 12:42:15;;;;;;;1.25;1.25;;;;;;;;;;6181722;23;20024;-57
2022/03/23 12:44:40;;;;;;;1.70;1.05;;;;;;;;;;6182064;23;19997;-59
2022/03/23 12:47:07;;;;;;;1.25;1.25;;;;;;;;;;6183023;23;19993;-59
2022/03/23 12:58:02;;;;;;;1.58;1.48;;;;;;;;;;6181465;23;20028;-60
2022/03/23 13:00:29;;;;;;;0.00;0.00;;;;;;;;;;6180135;23;20366;-60
2022/03/23 13:03:03;;;;;;;1.25;1.25;;;;;;;;;;6181466;23;20012;-60
2022/03/23 13:05:29;;;;;;;0.00;0.00;;;;;;;;;;6180071;23;20000;-54
2022/03/23 13:07:54;;;;;;;0.13;0.13;;;;;;;;;;6180008;23;19997;-54
2022/03/23 13:10:24;;;;;;;0.93;0.45;;;;;;;;;;6180154;23;20005;-55
2022/03/23 13:12:50;;;;;;;0.00;0.00;;;;;;;;;;6181140;23;20001;-55
2022/03/23 13:15:19;;;;;;;0.00;0.00;;;;;;;;;;6180984;23;20309;-55
2022/03/23 13:17:45;;;;;;;1.02;1.02;;;;;;;;;;6180068;23;20012;-54
2022/03/23 13:20:11;;;;;;;0.00;0.00;;;;;;;;;;6154541;23;20334;-54
2022/03/23 13:22:38;;;;;;;0.00;0.00;;;;;;;;;;6179612;23;20104;-56
2022/03/23 13:25:08;;;;;;;0.00;0.00;;;;;;;;;;6179735;23;19997;-56
2022/03/23 13:27:38;;;;;;;0.00;0.00;;;;;;;;;;6179731;23;19997;-57
2022/03/23 13:30:05;;;;;;;0.30;0.30;;;;;;;;;;6180827;23;20376;-56
2022/03/23 13:32:31;;;;;;;0.10;0.10;;;;;;;;;;6180242;23;20363;-55
2022/03/23 13:34:57;;;;;;;1.02;1.02;;;;;;;;;;6174487;23;20021;-53
2022/03/23 13:37:23;;;;;;;0.95;0.95;;;;;;;;;;6174472;23;20001;-56
2022/03/23 13:39:48;;;;;;;0.00;0.00;;;;;;;;;;6177374;23;20004;-56
2022/03/23 13:45:03;;;;;;;0.00;0.00;;;;;;;;;;6180739;23;20004;-54
2022/03/23 13:47:30;;;;;;;0.00;0.00;;;;;;;;;;6179963;23;20000;-53
2022/03/23 13:49:57;;;;;;;0.00;0.00;;;;;;;;;;6180802;23;20001;-55
2022/03/23 13:52:23;;;;;;;0.90;0.90;;;;;;;;;;6180530;23;20079;-55
2022/03/23 13:54:48;;;;;;;1.65;1.10;;;;;;;;;;6180189;23;20084;-55
2022/03/23 13:57:13;;;;;;;0.30;0.30;;;;;;;;;;6154268;23;20084;-55
2022/03/23 13:59:39;;;;;;;0.20;0.20;;;;;;;;;;6179762;23;20095;-54
2022/03/23 14:02:04;;;;;;;2.92;2.83;;;;;;;;;;6176078;23;20437;-53
2022/03/23 14:04:31;;;;;;;1.95;1.95;;;;;;;;;;6180328;23;20427;-54
2022/03/23 14:06:58;;;;;;;0.00;0.00;;;;;;;;;;6180161;23;19997;-57
2022/03/23 14:09:26;;;;;;;0.10;0.10;;;;;;;;;;6179517;23;20001;-51
2022/03/23 14:14:20;;;;;;;2.05;0.70;;;;;;;;;;6180539;23;20007;-54
2022/03/23 14:17:04;;;;;;;0.30;0.30;;;;;;;;;;6180418;23;20001;-56
2022/03/23 14:19:32;;;;;;;0.10;0.10;;;;;;;;;;6179130;23;20012;-56
2022/03/23 14:21:59;;;;;;;0.70;0.70;;;;;;;;;;6180633;23;20004;-52
2022/03/23 14:24:30;;;;;;;0.10;0.10;;;;;;;;;;6179773;23;20008;-57
2022/03/23 14:27:12;;;;;;;0.10;0.10;;;;;;;;;;6153977;23;20005;-54
2022/03/23 14:29:42;;;;;;;1.75;1.65;;;;;;;;;;6179838;23;20423;-54
2022/03/23 14:32:09;;;;;;;0.00;0.00;;;;;;;;;;6180349;23;20009;-55
2022/03/23 14:34:37;;;;;;;0.00;0.00;;;;;;;;;;6181128;23;20017;-53
2022/03/23 14:37:09;;;;;;;0.65;0.65;;;;;;;;;;6181605;23;20001;-53
2022/03/23 14:39:41;;;;;;;0.40;0.40;;;;;;;;;;6181393;23;20008;-56
2022/03/23 14:42:07;;;;;;;1.45;1.45;;;;;;;;;;6182526;23;20055;-55
2022/03/23 14:44:37;;;;;;;0.00;0.00;;;;;;;;;;6181963;23;20004;-58
2022/03/23 14:47:02;;;;;;;2.17;0.93;;;;;;;;;;6182548;23;20437;-59
2022/03/23 14:49:36;;;;;;;1.75;1.75;;;;;;;;;;6178435;23;19997;-58
2022/03/23 14:52:01;;;;;;;0.00;0.00;;;;;;;;;;6181136;23;20005;-60
2022/03/23 14:54:27;;;;;;;2.63;1.98;;;;;;;;;;6181936;23;20077;-59
2022/03/23 14:56:53;;;;;;;0.90;0.90;;;;;;;;;;6183537;23;20083;-60
2022/03/23 14:59:19;;;;;;;0.47;0.30;;;;;;;;;;6182183;23;20759;-59
2022/03/23 15:01:45;;;;;;;0.38;0.38;;;;;;;;;;6180664;23;20036;-60
2022/03/23 15:04:10;;;;;;;0.00;0.00;;;;;;;;;;6181966;23;20043;-59
2022/03/23 15:14:48;;;;;;;1.85;1.00;;;;;;;;;;6158811;23;20084;-59
2022/03/23 15:17:13;;;;;;;0.00;0.00;;;;;;;;;;6182616;23;20020;-60
2022/03/23 15:19:39;;;;;;;0.75;0.75;;;;;;;;;;6181650;23;20001;-59
2022/03/23 15:22:04;;;;;;;0.00;0.00;;;;;;;;;;6181482;23;20056;-61
2022/03/23 15:24:30;;;;;;;0.00;0.00;;;;;;;;;;6180862;23;19998;-61
2022/03/23 15:26:56;;;;;;;0.00;0.00;;;;;;;;;;6181318;23;20119;-59
2022/03/23 15:29:21;;;;;;;0.00;0.00;;;;;;;;;;6181780;23;20043;-59